createdAt,value
2022-08-21T00:00:26.081Z,772.08
2022-08-21T00:01:26.047Z,772.04
2022-08-21T00:02:26.089Z,771.74
2022-08-21T00:03:26.019Z,771.28
2022-08-21T00:04:29.498Z,770.41
2022-08-21T00:05:26.006Z,769.97
2022-08-21T00:06:25.995Z,770.16
2022-08-21T00:07:25.985Z,770.77
2022-08-21T00:08:25.964Z,770.62
2022-08-21T00:09:25.957Z,769.06
2022-08-21T00:10:25.946Z,768.84
2022-08-21T00:11:25.960Z,768.06
2022-08-21T00:12:25.930Z,767.64
2022-08-21T00:13:25.912Z,767.18
2022-08-21T00:14:25.908Z,767.12
2022-08-21T00:15:25.887Z,767.56
2022-08-21T00:16:25.900Z,768.19
2022-08-21T00:17:25.875Z,768.74
2022-08-21T00:18:25.860Z,769.19
2022-08-21T00:19:25.856Z,769.57
2022-08-21T00:20:25.834Z,768.85
2022-08-21T00:21:25.856Z,768.09
2022-08-21T00:22:25.818Z,767.20
2022-08-21T00:23:25.803Z,766.05
2022-08-21T00:24:25.789Z,765.62
2022-08-21T00:25:26.174Z,766.88
2022-08-21T00:26:25.795Z,767.31
2022-08-21T00:27:25.762Z,767.63
2022-08-21T00:28:25.772Z,767.73
2022-08-21T00:29:25.734Z,767.29
2022-08-21T00:30:25.719Z,767.18
2022-08-21T00:31:25.740Z,767.39
2022-08-21T00:32:25.704Z,767.36
2022-08-21T00:33:25.687Z,767.31
2022-08-21T00:34:25.675Z,767.73
2022-08-21T00:35:25.665Z,768.30
2022-08-21T00:36:25.667Z,769.40
2022-08-21T00:37:25.655Z,769.74
2022-08-21T00:38:25.647Z,770.01
2022-08-21T00:39:25.647Z,770.53
2022-08-21T00:40:25.616Z,770.98
2022-08-21T00:41:38.130Z,771.08
2022-08-21T00:42:25.593Z,770.74
2022-08-21T00:43:25.608Z,769.56
2022-08-21T00:44:25.569Z,769.00
2022-08-21T00:45:25.555Z,768.50
2022-08-21T00:47:34.513Z,767.19
2022-08-21T00:48:35.532Z,767.85
2022-08-21T00:49:35.492Z,767.62
2022-08-21T00:50:35.485Z,767.25
2022-08-21T00:51:38.214Z,766.98
2022-08-21T00:52:35.456Z,766.79
2022-08-21T00:53:35.475Z,766.89
2022-08-21T00:54:35.437Z,766.95
2022-08-21T00:55:35.428Z,766.87
2022-08-21T00:56:35.430Z,766.81
2022-08-21T00:57:35.405Z,766.49
2022-08-21T00:58:35.557Z,766.28
2022-08-21T00:59:35.389Z,765.71
2022-08-21T01:00:35.371Z,765.45
2022-08-21T01:01:35.442Z,765.42
2022-08-21T01:02:35.355Z,764.81
2022-08-21T01:03:35.360Z,764.38
2022-08-21T01:04:35.334Z,763.96
2022-08-21T01:05:35.313Z,763.67
2022-08-21T01:06:35.328Z,763.62
2022-08-21T01:07:35.299Z,763.71
2022-08-21T01:08:35.294Z,763.71
2022-08-21T01:09:35.311Z,763.53
2022-08-21T01:10:35.265Z,763.48
2022-08-21T01:11:35.249Z,763.53
2022-08-21T01:12:35.244Z,763.18
2022-08-21T01:13:35.233Z,763.04
2022-08-21T01:14:35.247Z,763.13
2022-08-21T01:15:35.207Z,763.10
2022-08-21T01:16:35.202Z,763.04
2022-08-21T01:17:35.183Z,763.13
2022-08-21T01:18:35.179Z,763.31
2022-08-21T01:19:35.193Z,763.38
2022-08-21T01:20:35.153Z,763.55
2022-08-21T01:21:35.145Z,763.42
2022-08-21T01:22:35.127Z,763.58
2022-08-21T01:23:35.120Z,763.70
2022-08-21T01:24:35.122Z,763.78
2022-08-21T01:25:35.101Z,763.99
2022-08-21T01:26:35.104Z,764.16
2022-08-21T01:27:35.107Z,764.37
2022-08-21T01:28:35.077Z,764.63
2022-08-21T01:29:35.056Z,764.40
2022-08-21T01:30:35.067Z,764.30
2022-08-21T01:31:35.033Z,764.59
2022-08-21T01:32:35.034Z,764.64
2022-08-21T01:33:35.060Z,764.87
2022-08-21T01:34:35.003Z,765.02
2022-08-21T01:35:34.992Z,765.11
2022-08-21T01:36:34.974Z,765.02
2022-08-21T01:37:34.969Z,765.22
2022-08-21T01:38:34.958Z,765.46
2022-08-21T01:39:35.031Z,765.92
2022-08-21T01:40:34.938Z,766.17
2022-08-21T01:41:34.927Z,766.44
2022-08-21T01:42:35.490Z,766.95
2022-08-21T01:43:39.372Z,767.11
2022-08-21T01:44:34.905Z,767.65
2022-08-21T01:45:34.882Z,768.17
2022-08-21T01:46:34.872Z,768.40
2022-08-21T01:47:34.853Z,769.08
2022-08-21T01:48:34.851Z,769.62
2022-08-21T01:49:34.865Z,769.92
2022-08-21T01:50:34.825Z,770.06
2022-08-21T01:51:34.811Z,770.24
2022-08-21T01:52:34.804Z,770.40
2022-08-21T01:53:34.796Z,769.50
2022-08-21T01:54:34.807Z,769.71
2022-08-21T01:55:34.770Z,770.27
2022-08-21T01:56:34.776Z,770.53
2022-08-21T01:57:34.754Z,769.33
2022-08-21T01:58:34.743Z,768.72
2022-08-21T01:59:34.753Z,768.53
2022-08-21T02:00:34.777Z,767.66
2022-08-21T02:01:34.711Z,767.41
2022-08-21T02:02:34.691Z,767.15
2022-08-21T02:03:35.564Z,766.98
2022-08-21T02:04:34.698Z,766.89
2022-08-21T02:05:34.667Z,766.86
2022-08-21T02:06:34.655Z,767.00
2022-08-21T02:07:34.662Z,767.05
2022-08-21T02:08:34.630Z,766.96
2022-08-21T02:09:34.651Z,766.92
2022-08-21T02:10:34.617Z,766.80
2022-08-21T02:11:34.600Z,766.57
2022-08-21T02:12:34.601Z,766.84
2022-08-21T02:13:34.601Z,767.03
2022-08-21T02:14:34.590Z,767.62
2022-08-21T02:15:34.560Z,767.60
2022-08-21T02:16:34.569Z,767.76
2022-08-21T02:17:34.529Z,767.81
2022-08-21T02:18:34.522Z,768.03
2022-08-21T02:19:38.339Z,768.40
2022-08-21T02:20:34.504Z,768.97
2022-08-21T02:21:34.506Z,769.02
2022-08-21T02:22:34.510Z,769.23
2022-08-21T02:23:34.466Z,769.35
2022-08-21T02:24:34.465Z,769.46
2022-08-21T02:25:34.468Z,769.70
2022-08-21T02:26:34.438Z,770.09
2022-08-21T02:27:34.452Z,770.33
2022-08-21T02:28:34.421Z,770.56
2022-08-21T02:29:34.401Z,770.71
2022-08-21T02:30:34.398Z,770.55
2022-08-21T02:31:34.391Z,770.55
2022-08-21T02:32:34.396Z,770.49
2022-08-21T02:33:34.367Z,770.13
2022-08-21T02:34:34.344Z,769.99
2022-08-21T02:35:34.335Z,769.68
2022-08-21T02:36:34.329Z,769.59
2022-08-21T02:37:34.340Z,769.57
2022-08-21T02:38:34.306Z,769.86
2022-08-21T02:39:34.299Z,769.98
2022-08-21T02:40:34.281Z,770.20
2022-08-21T02:41:34.272Z,770.08
2022-08-21T02:42:34.275Z,770.15
2022-08-21T02:43:34.258Z,769.99
2022-08-21T02:44:34.513Z,770.25
2022-08-21T02:45:34.276Z,770.07
2022-08-21T02:46:34.227Z,769.70
2022-08-21T02:48:43.164Z,767.26
2022-08-21T02:49:44.156Z,768.84
2022-08-21T02:50:44.170Z,767.99
2022-08-21T02:51:44.126Z,767.84
2022-08-21T02:52:44.120Z,767.33
2022-08-21T02:53:44.116Z,767.30
2022-08-21T02:54:44.099Z,767.30
2022-08-21T02:55:44.112Z,767.12
2022-08-21T02:56:44.090Z,767.05
2022-08-21T02:57:44.070Z,766.84
2022-08-21T02:58:44.056Z,766.81
2022-08-21T02:59:44.044Z,766.87
2022-08-21T03:00:44.041Z,766.54
2022-08-21T03:01:44.063Z,766.23
2022-08-21T03:02:44.041Z,765.99
2022-08-21T03:03:44.005Z,765.84
2022-08-21T03:04:46.640Z,765.78
2022-08-21T03:05:43.979Z,765.95
2022-08-21T03:06:43.970Z,765.93
2022-08-21T03:07:43.988Z,763.56
2022-08-21T03:08:43.954Z,763.72
2022-08-21T03:09:55.096Z,763.54
2022-08-21T03:10:43.929Z,763.60
2022-08-21T03:11:43.918Z,763.47
2022-08-21T03:12:43.930Z,763.42
2022-08-21T03:13:43.891Z,763.42
2022-08-21T03:14:43.883Z,763.30
2022-08-21T03:15:43.871Z,763.26
2022-08-21T03:16:43.861Z,763.22
2022-08-21T03:17:43.880Z,763.08
2022-08-21T03:18:43.834Z,762.99
2022-08-21T03:19:43.822Z,762.86
2022-08-21T03:20:43.815Z,762.73
2022-08-21T03:21:43.801Z,762.43
2022-08-21T03:22:48.565Z,762.16
2022-08-21T03:23:44.032Z,762.06
2022-08-21T03:24:44.223Z,761.87
2022-08-21T03:25:43.757Z,761.96
2022-08-21T03:26:43.746Z,762.01
2022-08-21T03:27:43.762Z,761.98
2022-08-21T03:28:43.727Z,761.99
2022-08-21T03:29:43.719Z,761.90
2022-08-21T03:30:43.705Z,761.72
2022-08-21T03:31:43.697Z,761.26
2022-08-21T03:32:43.711Z,761.05
2022-08-21T03:33:43.679Z,760.82
2022-08-21T03:34:43.672Z,760.61
2022-08-21T03:35:43.680Z,760.62
2022-08-21T03:36:43.643Z,760.57
2022-08-21T03:37:43.662Z,760.39
2022-08-21T03:38:43.625Z,760.22
2022-08-21T03:39:43.648Z,760.09
2022-08-21T03:40:43.603Z,759.75
2022-08-21T03:41:43.589Z,759.75
2022-08-21T03:42:43.603Z,759.77
2022-08-21T03:43:43.573Z,759.51
2022-08-21T03:44:43.557Z,759.42
2022-08-21T03:45:43.588Z,759.52
2022-08-21T03:46:43.539Z,759.88
2022-08-21T03:47:43.551Z,760.01
2022-08-21T03:48:43.518Z,760.43
2022-08-21T03:49:43.503Z,760.73
2022-08-21T03:50:43.485Z,761.21
2022-08-21T03:51:43.474Z,761.57
2022-08-21T03:52:43.491Z,761.97
2022-08-21T03:53:43.460Z,762.25
2022-08-21T03:54:43.443Z,762.46
2022-08-21T03:55:43.442Z,762.72
2022-08-21T03:56:43.490Z,762.96
2022-08-21T03:57:43.897Z,763.17
2022-08-21T03:58:43.404Z,763.60
2022-08-21T03:59:43.387Z,763.61
2022-08-21T04:00:43.377Z,763.04
2022-08-21T04:01:43.429Z,762.77
2022-08-21T04:02:43.391Z,762.72
2022-08-21T04:03:43.346Z,762.58
2022-08-21T04:04:43.340Z,762.45
2022-08-21T04:05:43.326Z,761.91
2022-08-21T04:06:43.318Z,761.56
2022-08-21T04:07:43.330Z,761.65
2022-08-21T04:08:43.295Z,762.01
2022-08-21T04:09:43.283Z,762.22
2022-08-21T04:10:43.275Z,762.66
2022-08-21T04:11:43.261Z,762.96
2022-08-21T04:12:43.276Z,763.11
2022-08-21T04:13:44.873Z,762.73
2022-08-21T04:14:43.238Z,762.07
2022-08-21T04:15:43.227Z,761.29
2022-08-21T04:16:43.223Z,761.08
2022-08-21T04:17:43.223Z,761.48
2022-08-21T04:18:43.193Z,761.83
2022-08-21T04:19:43.177Z,762.32
2022-08-21T04:20:43.169Z,762.76
2022-08-21T04:21:43.155Z,763.09
2022-08-21T04:22:43.168Z,763.57
2022-08-21T04:23:43.129Z,763.82
2022-08-21T04:24:43.121Z,764.11
2022-08-21T04:25:43.106Z,764.76
2022-08-21T04:26:43.105Z,764.99
2022-08-21T04:27:43.095Z,765.44
2022-08-21T04:28:43.079Z,764.01
2022-08-21T04:29:43.067Z,762.01
2022-08-21T04:30:43.054Z,760.44
2022-08-21T04:31:43.080Z,759.10
2022-08-21T04:32:43.036Z,757.99
2022-08-21T04:33:43.024Z,757.49
2022-08-21T04:34:43.007Z,753.34
2022-08-21T04:35:43.012Z,754.27
2022-08-21T04:36:42.994Z,754.80
2022-08-21T04:37:42.992Z,755.37
2022-08-21T04:38:44.450Z,755.52
2022-08-21T04:39:43.009Z,755.59
2022-08-21T04:40:42.975Z,756.65
2022-08-21T04:41:42.937Z,757.39
2022-08-21T04:42:42.920Z,758.23
2022-08-21T04:43:42.912Z,759.20
2022-08-21T04:44:42.903Z,760.16
2022-08-21T04:45:42.909Z,761.39
2022-08-21T04:46:42.914Z,762.82
2022-08-21T04:47:52.886Z,763.33
2022-08-21T04:49:51.832Z,760.98
2022-08-21T04:50:52.825Z,764.49
2022-08-21T04:51:52.825Z,762.90
2022-08-21T04:52:52.813Z,761.79
2022-08-21T04:53:53.086Z,762.04
2022-08-21T04:54:54.945Z,761.89
2022-08-21T04:55:52.757Z,762.12
2022-08-21T04:56:52.777Z,765.79
2022-08-21T04:57:52.737Z,766.69
2022-08-21T04:58:52.729Z,766.71
2022-08-21T04:59:52.718Z,766.70
2022-08-21T05:00:52.702Z,766.91
2022-08-21T05:01:52.775Z,766.85
2022-08-21T05:02:52.710Z,766.80
2022-08-21T05:03:52.669Z,766.74
2022-08-21T05:04:52.658Z,766.79
2022-08-21T05:05:52.675Z,766.97
2022-08-21T05:06:52.635Z,767.23
2022-08-21T05:07:52.632Z,767.33
2022-08-21T05:08:52.619Z,767.36
2022-08-21T05:09:52.612Z,767.20
2022-08-21T05:10:54.987Z,767.46
2022-08-21T05:11:52.588Z,767.32
2022-08-21T05:12:52.573Z,767.27
2022-08-21T05:13:57.144Z,767.11
2022-08-21T05:14:52.557Z,767.09
2022-08-21T05:15:52.567Z,766.93
2022-08-21T05:16:52.528Z,766.74
2022-08-21T05:18:00.894Z,766.57
2022-08-21T05:18:52.512Z,766.61
2022-08-21T05:19:52.498Z,766.50
2022-08-21T05:20:52.509Z,766.66
2022-08-21T05:21:52.471Z,766.43
2022-08-21T05:22:52.459Z,766.46
2022-08-21T05:23:52.449Z,766.33
2022-08-21T05:24:52.441Z,766.08
2022-08-21T05:25:52.452Z,765.94
2022-08-21T05:26:52.422Z,765.94
2022-08-21T05:27:52.624Z,766.00
2022-08-21T05:28:52.412Z,765.84
2022-08-21T05:29:52.397Z,765.67
2022-08-21T05:30:52.396Z,765.76
2022-08-21T05:31:52.377Z,765.60
2022-08-21T05:32:52.355Z,765.82
2022-08-21T05:33:52.345Z,765.94
2022-08-21T05:34:52.325Z,766.20
2022-08-21T05:35:52.339Z,766.18
2022-08-21T05:36:52.310Z,765.98
2022-08-21T05:37:52.297Z,766.33
2022-08-21T05:38:52.287Z,766.59
2022-08-21T05:40:04.830Z,766.99
2022-08-21T05:40:52.381Z,767.10
2022-08-21T05:41:52.255Z,767.23
2022-08-21T05:42:54.203Z,767.87
2022-08-21T05:43:52.237Z,767.74
2022-08-21T05:44:52.218Z,767.10
2022-08-21T05:45:52.229Z,766.23
2022-08-21T05:46:52.201Z,765.73
2022-08-21T05:47:52.181Z,765.64
2022-08-21T05:48:52.174Z,765.81
2022-08-21T05:49:52.174Z,766.33
2022-08-21T05:50:52.179Z,767.70
2022-08-21T05:51:52.154Z,767.51
2022-08-21T05:52:52.187Z,767.72
2022-08-21T05:53:52.131Z,767.91
2022-08-21T05:54:52.110Z,767.73
2022-08-21T05:55:52.117Z,766.98
2022-08-21T05:56:52.085Z,767.03
2022-08-21T05:57:52.076Z,767.01
2022-08-21T05:58:52.068Z,766.40
2022-08-21T05:59:52.048Z,766.68
2022-08-21T06:00:52.050Z,766.52
2022-08-21T06:01:52.090Z,766.73
2022-08-21T06:02:52.132Z,766.94
2022-08-21T06:03:52.037Z,766.03
2022-08-21T06:04:51.993Z,764.66
2022-08-21T06:05:51.985Z,763.75
2022-08-21T06:06:51.969Z,762.84
2022-08-21T06:07:51.958Z,762.57
2022-08-21T06:08:51.959Z,762.50
2022-08-21T06:09:51.955Z,761.23
2022-08-21T06:10:51.932Z,760.16
2022-08-21T06:11:51.916Z,762.54
2022-08-21T06:12:51.992Z,762.58
2022-08-21T06:13:51.896Z,762.81
2022-08-21T06:14:51.881Z,762.24
2022-08-21T06:15:51.873Z,761.14
2022-08-21T06:16:51.866Z,762.48
2022-08-21T06:17:51.878Z,762.24
2022-08-21T06:18:51.844Z,762.47
2022-08-21T06:19:51.828Z,761.18
2022-08-21T06:20:51.820Z,760.27
2022-08-21T06:21:51.817Z,759.30
2022-08-21T06:22:51.894Z,758.15
2022-08-21T06:23:51.781Z,757.74
2022-08-21T06:24:51.777Z,757.11
2022-08-21T06:25:51.774Z,756.55
2022-08-21T06:26:51.747Z,756.05
2022-08-21T06:27:51.765Z,755.86
2022-08-21T06:28:51.724Z,757.20
2022-08-21T06:29:51.710Z,758.11
2022-08-21T06:30:51.704Z,759.44
2022-08-21T06:31:51.689Z,758.63
2022-08-21T06:32:51.725Z,758.40
2022-08-21T06:33:51.683Z,758.45
2022-08-21T06:34:51.661Z,757.97
2022-08-21T06:35:51.653Z,757.41
2022-08-21T06:36:51.643Z,756.31
2022-08-21T06:37:51.658Z,755.32
2022-08-21T06:38:51.915Z,753.82
2022-08-21T06:39:51.633Z,753.30
2022-08-21T06:40:51.593Z,753.40
2022-08-21T06:41:51.584Z,753.23
2022-08-21T06:42:51.656Z,752.35
2022-08-21T06:43:51.581Z,752.44
2022-08-21T06:44:51.549Z,751.16
2022-08-21T06:45:51.535Z,751.22
2022-08-21T06:46:51.532Z,752.65
2022-08-21T06:47:51.543Z,751.17
2022-08-21T06:48:51.512Z,751.05
2022-08-21T06:51:00.758Z,747.45
2022-08-21T06:52:01.766Z,749.58
2022-08-21T06:53:01.751Z,749.22
2022-08-21T06:54:01.726Z,748.30
2022-08-21T06:55:01.716Z,747.96
2022-08-21T06:56:01.734Z,746.85
2022-08-21T06:57:01.690Z,746.03
2022-08-21T06:58:01.681Z,745.70
2022-08-21T06:59:01.672Z,745.83
2022-08-21T07:00:01.657Z,745.39
2022-08-21T07:01:01.727Z,745.22
2022-08-21T07:02:01.749Z,745.33
2022-08-21T07:03:01.630Z,745.83
2022-08-21T07:04:01.629Z,745.34
2022-08-21T07:05:01.606Z,745.25
2022-08-21T07:06:01.592Z,745.12
2022-08-21T07:07:01.583Z,744.58
2022-08-21T07:08:01.579Z,743.85
2022-08-21T07:09:01.595Z,742.94
2022-08-21T07:10:01.555Z,743.31
2022-08-21T07:11:01.546Z,742.47
2022-08-21T07:12:01.533Z,742.77
2022-08-21T07:13:01.867Z,742.15
2022-08-21T07:14:01.530Z,741.78
2022-08-21T07:15:01.494Z,740.48
2022-08-21T07:16:04.073Z,739.36
2022-08-21T07:17:01.470Z,739.62
2022-08-21T07:18:01.463Z,738.48
2022-08-21T07:19:01.469Z,738.70
2022-08-21T07:20:01.443Z,738.75
2022-08-21T07:21:01.422Z,738.05
2022-08-21T07:22:01.410Z,738.50
2022-08-21T07:23:01.406Z,738.23
2022-08-21T07:24:01.418Z,737.64
2022-08-21T07:25:01.383Z,738.39
2022-08-21T07:26:01.374Z,738.35
2022-08-21T07:27:01.356Z,737.29
2022-08-21T07:28:01.341Z,735.99
2022-08-21T07:29:01.364Z,734.58
2022-08-21T07:30:01.333Z,734.49
2022-08-21T07:31:01.312Z,733.47
2022-08-21T07:32:01.317Z,733.10
2022-08-21T07:33:02.320Z,733.14
2022-08-21T07:34:01.309Z,731.96
2022-08-21T07:35:01.273Z,731.66
2022-08-21T07:36:01.258Z,732.76
2022-08-21T07:37:06.356Z,733.79
2022-08-21T07:38:01.245Z,732.93
2022-08-21T07:39:01.250Z,732.31
2022-08-21T07:40:01.287Z,730.94
2022-08-21T07:41:01.207Z,730.42
2022-08-21T07:42:05.034Z,728.96
2022-08-21T07:43:01.274Z,728.77
2022-08-21T07:44:01.225Z,728.06
2022-08-21T07:45:01.161Z,727.85
2022-08-21T07:46:01.147Z,727.53
2022-08-21T07:47:01.135Z,726.86
2022-08-21T07:48:01.124Z,726.48
2022-08-21T07:49:01.155Z,725.39
2022-08-21T07:50:01.121Z,724.53
2022-08-21T07:51:01.093Z,724.40
2022-08-21T07:52:01.083Z,723.99
2022-08-21T07:53:01.239Z,724.47
2022-08-21T07:54:01.083Z,724.30
2022-08-21T07:55:05.498Z,724.47
2022-08-21T07:56:01.047Z,723.97
2022-08-21T07:57:01.030Z,723.64
2022-08-21T07:58:01.018Z,722.44
2022-08-21T07:59:01.017Z,722.44
2022-08-21T08:00:01.013Z,721.88
2022-08-21T08:01:01.070Z,720.52
2022-08-21T08:02:00.969Z,718.91
2022-08-21T08:03:01.205Z,718.43
2022-08-21T08:04:00.981Z,719.66
2022-08-21T08:05:00.973Z,718.46
2022-08-21T08:06:00.933Z,719.38
2022-08-21T08:07:00.914Z,719.75
2022-08-21T08:08:00.911Z,720.86
2022-08-21T08:09:00.893Z,719.52
2022-08-21T08:10:00.989Z,720.02
2022-08-21T08:11:00.876Z,719.40
2022-08-21T08:12:00.890Z,718.59
2022-08-21T08:13:01.099Z,718.45
2022-08-21T08:14:00.837Z,717.21
2022-08-21T08:15:00.824Z,716.01
2022-08-21T08:16:00.812Z,715.13
2022-08-21T08:17:00.828Z,714.43
2022-08-21T08:18:00.797Z,713.81
2022-08-21T08:19:00.787Z,713.18
2022-08-21T08:20:00.774Z,713.77
2022-08-21T08:21:00.760Z,713.76
2022-08-21T08:22:00.775Z,713.93
2022-08-21T08:23:00.900Z,713.71
2022-08-21T08:24:00.732Z,713.00
2022-08-21T08:25:00.728Z,712.92
2022-08-21T08:26:00.700Z,712.84
2022-08-21T08:27:00.722Z,711.95
2022-08-21T08:28:00.696Z,711.63
2022-08-21T08:29:00.675Z,710.27
2022-08-21T08:30:00.659Z,709.76
2022-08-21T08:31:00.650Z,709.93
2022-08-21T08:32:00.649Z,710.08
2022-08-21T08:33:00.968Z,709.78
2022-08-21T08:34:00.614Z,710.26
2022-08-21T08:35:00.610Z,711.10
2022-08-21T08:36:07.046Z,710.69
2022-08-21T08:37:00.588Z,710.22
2022-08-21T08:38:00.598Z,710.05
2022-08-21T08:39:00.564Z,709.77
2022-08-21T08:40:00.739Z,709.46
2022-08-21T08:41:00.567Z,709.67
2022-08-21T08:42:00.543Z,708.73
2022-08-21T08:43:00.904Z,711.75
2022-08-21T08:44:00.503Z,712.93
2022-08-21T08:45:00.497Z,712.57
2022-08-21T08:46:00.516Z,711.65
2022-08-21T08:47:00.483Z,710.97
2022-08-21T08:48:00.474Z,710.42
2022-08-21T08:49:00.451Z,709.73
2022-08-21T08:50:00.443Z,709.22
2022-08-21T08:52:09.421Z,709.14
2022-08-21T08:53:10.389Z,710.23
2022-08-21T08:54:10.371Z,709.51
2022-08-21T08:55:10.353Z,708.47
2022-08-21T08:56:10.342Z,707.91
2022-08-21T08:57:10.365Z,707.56
2022-08-21T08:58:10.319Z,706.76
2022-08-21T08:59:10.320Z,705.88
2022-08-21T09:00:10.307Z,705.51
2022-08-21T09:01:10.316Z,704.91
2022-08-21T09:02:10.302Z,704.49
2022-08-21T09:03:10.276Z,703.76
2022-08-21T09:04:10.255Z,703.07
2022-08-21T09:05:10.247Z,702.04
2022-08-21T09:06:10.233Z,701.67
2022-08-21T09:07:10.238Z,701.22
2022-08-21T09:08:10.216Z,701.79
2022-08-21T09:09:10.235Z,705.59
2022-08-21T09:10:10.206Z,709.23
2022-08-21T09:11:10.186Z,709.49
2022-08-21T09:12:10.169Z,707.72
2022-08-21T09:13:10.161Z,705.81
2022-08-21T09:14:10.178Z,705.14
2022-08-21T09:15:10.143Z,703.77
2022-08-21T09:16:10.128Z,703.60
2022-08-21T09:17:10.132Z,704.08
2022-08-21T09:18:10.128Z,705.44
2022-08-21T09:19:10.126Z,707.30
2022-08-21T09:20:10.086Z,707.82
2022-08-21T09:21:10.074Z,706.57
2022-08-21T09:22:10.064Z,708.61
2022-08-21T09:23:10.054Z,710.25
2022-08-21T09:24:10.070Z,711.59
2022-08-21T09:25:10.037Z,710.84
2022-08-21T09:26:10.024Z,710.00
2022-08-21T09:27:10.010Z,709.03
2022-08-21T09:28:10.055Z,707.25
2022-08-21T09:29:09.989Z,704.96
2022-08-21T09:30:10.011Z,702.91
2022-08-21T09:31:09.992Z,701.58
2022-08-21T09:32:09.961Z,699.76
2022-08-21T09:33:09.945Z,698.71
2022-08-21T09:34:09.956Z,699.59
2022-08-21T09:35:09.940Z,702.83
2022-08-21T09:36:09.913Z,702.56
2022-08-21T09:37:09.900Z,702.74
2022-08-21T09:38:09.886Z,704.95
2022-08-21T09:39:09.902Z,705.60
2022-08-21T09:40:09.959Z,706.80
2022-08-21T09:41:09.883Z,709.08
2022-08-21T09:42:09.841Z,706.46
2022-08-21T09:43:09.826Z,704.25
2022-08-21T09:44:09.826Z,704.50
2022-08-21T09:45:09.809Z,704.32
2022-08-21T09:46:09.822Z,703.15
2022-08-21T09:47:09.783Z,707.39
2022-08-21T09:48:09.776Z,707.97
2022-08-21T09:49:13.430Z,708.02
2022-08-21T09:50:09.754Z,708.82
2022-08-21T09:51:09.766Z,709.25
2022-08-21T09:52:09.743Z,708.04
2022-08-21T09:53:09.715Z,707.68
2022-08-21T09:54:09.703Z,706.72
2022-08-21T09:55:09.700Z,705.67
2022-08-21T09:56:09.713Z,706.17
2022-08-21T09:57:09.679Z,706.17
2022-08-21T09:58:09.661Z,705.27
2022-08-21T09:59:09.650Z,705.05
2022-08-21T10:00:09.648Z,703.97
2022-08-21T10:01:09.736Z,703.86
2022-08-21T10:02:09.630Z,704.96
2022-08-21T10:03:09.612Z,704.33
2022-08-21T10:04:09.635Z,704.81
2022-08-21T10:05:09.584Z,705.38
2022-08-21T10:06:09.633Z,704.60
2022-08-21T10:07:09.565Z,703.17
2022-08-21T10:08:09.560Z,702.01
2022-08-21T10:09:13.559Z,700.68
2022-08-21T10:10:09.539Z,700.26
2022-08-21T10:11:09.528Z,699.11
2022-08-21T10:12:11.107Z,698.90
2022-08-21T10:13:09.504Z,697.94
2022-08-21T10:14:09.505Z,696.09
2022-08-21T10:15:09.494Z,697.28
2022-08-21T10:16:09.473Z,698.34
2022-08-21T10:17:09.455Z,700.09
2022-08-21T10:18:09.477Z,699.83
2022-08-21T10:19:09.431Z,699.91
2022-08-21T10:20:09.431Z,699.57
2022-08-21T10:21:12.024Z,701.10
2022-08-21T10:22:09.403Z,702.63
2022-08-21T10:23:09.418Z,703.92
2022-08-21T10:24:09.393Z,702.60
2022-08-21T10:25:09.369Z,701.62
2022-08-21T10:26:14.258Z,700.68
2022-08-21T10:27:09.349Z,700.28
2022-08-21T10:28:13.573Z,700.69
2022-08-21T10:29:09.327Z,702.87
2022-08-21T10:30:09.339Z,705.05
2022-08-21T10:31:09.332Z,705.08
2022-08-21T10:32:10.914Z,704.68
2022-08-21T10:33:09.307Z,703.81
2022-08-21T10:34:09.267Z,703.38
2022-08-21T10:35:09.269Z,702.85
2022-08-21T10:36:09.280Z,702.87
2022-08-21T10:37:10.772Z,702.96
2022-08-21T10:38:09.227Z,702.15
2022-08-21T10:39:26.625Z,701.49
2022-08-21T10:40:09.262Z,699.22
2022-08-21T10:41:09.223Z,697.34
2022-08-21T10:42:09.191Z,697.71
2022-08-21T10:43:09.172Z,698.78
2022-08-21T10:44:09.192Z,697.68
2022-08-21T10:45:09.149Z,696.64
2022-08-21T10:46:09.161Z,696.13
2022-08-21T10:47:09.144Z,695.15
2022-08-21T10:48:09.118Z,694.99
2022-08-21T10:49:09.104Z,694.91
2022-08-21T10:50:09.098Z,696.28
2022-08-21T10:51:09.107Z,696.89
2022-08-21T10:53:18.337Z,695.13
2022-08-21T10:54:23.381Z,694.23
2022-08-21T10:55:19.322Z,693.31
2022-08-21T10:56:19.351Z,690.59
2022-08-21T10:57:26.078Z,687.96
2022-08-21T10:58:19.323Z,685.92
2022-08-21T10:59:19.267Z,685.07
2022-08-21T11:00:19.255Z,686.06
2022-08-21T11:01:19.378Z,688.61
2022-08-21T11:02:19.233Z,691.95
2022-08-21T11:03:19.222Z,694.58
2022-08-21T11:04:19.211Z,695.37
2022-08-21T11:05:19.205Z,696.85
2022-08-21T11:06:19.221Z,696.20
2022-08-21T11:07:19.188Z,695.05
2022-08-21T11:08:19.174Z,694.28
2022-08-21T11:09:19.224Z,694.64
2022-08-21T11:10:19.924Z,692.27
2022-08-21T11:11:22.103Z,692.32
2022-08-21T11:12:19.139Z,695.42
2022-08-21T11:13:19.123Z,694.80
2022-08-21T11:14:19.131Z,694.68
2022-08-21T11:15:28.986Z,694.26
2022-08-21T11:16:19.090Z,693.39
2022-08-21T11:17:21.836Z,693.43
2022-08-21T11:18:19.063Z,692.89
2022-08-21T11:19:19.072Z,692.85
2022-08-21T11:20:19.088Z,693.25
2022-08-21T11:21:20.012Z,692.43
2022-08-21T11:22:19.052Z,690.17
2022-08-21T11:23:19.015Z,689.34
2022-08-21T11:24:19.008Z,688.62
2022-08-21T11:25:18.991Z,690.08
2022-08-21T11:26:19.024Z,692.37
2022-08-21T11:27:18.992Z,691.89
2022-08-21T11:28:18.958Z,691.73
2022-08-21T11:29:18.950Z,690.83
2022-08-21T11:30:18.941Z,689.68
2022-08-21T11:31:18.952Z,688.56
2022-08-21T11:32:18.932Z,688.36
2022-08-21T11:33:18.936Z,690.15
2022-08-21T11:34:18.909Z,690.73
2022-08-21T11:35:18.889Z,690.55
2022-08-21T11:36:18.916Z,691.40
2022-08-21T11:37:18.873Z,690.37
2022-08-21T11:38:18.857Z,688.52
2022-08-21T11:39:18.861Z,687.66
2022-08-21T11:40:18.910Z,686.38
2022-08-21T11:41:18.832Z,685.01
2022-08-21T11:42:18.811Z,684.98
2022-08-21T11:43:18.826Z,685.38
2022-08-21T11:44:18.786Z,685.79
2022-08-21T11:45:18.781Z,686.38
2022-08-21T11:46:18.779Z,689.77
2022-08-21T11:47:18.759Z,688.90
2022-08-21T11:48:18.760Z,688.32
2022-08-21T11:49:18.741Z,688.13
2022-08-21T11:50:34.120Z,687.49
2022-08-21T11:51:18.718Z,686.32
2022-08-21T11:52:18.700Z,684.44
2022-08-21T11:53:18.719Z,684.36
2022-08-21T11:54:18.716Z,684.15
2022-08-21T11:55:23.545Z,684.03
2022-08-21T11:56:18.666Z,684.02
2022-08-21T11:57:18.661Z,683.87
2022-08-21T11:58:18.647Z,686.31
2022-08-21T11:59:18.653Z,688.00
2022-08-21T12:00:18.641Z,688.11
2022-08-21T12:01:18.606Z,688.68
2022-08-21T12:02:18.664Z,688.17
2022-08-21T12:03:18.601Z,687.30
2022-08-21T12:04:18.920Z,685.76
2022-08-21T12:05:18.568Z,687.00
2022-08-21T12:06:24.308Z,688.58
2022-08-21T12:07:18.548Z,689.02
2022-08-21T12:08:18.530Z,688.29
2022-08-21T12:09:18.552Z,686.76
2022-08-21T12:10:18.517Z,688.16
2022-08-21T12:11:18.501Z,688.43
2022-08-21T12:12:18.494Z,686.70
2022-08-21T12:13:18.484Z,687.41
2022-08-21T12:14:18.487Z,686.80
2022-08-21T12:15:18.477Z,686.00
2022-08-21T12:16:18.469Z,687.40
2022-08-21T12:17:20.355Z,689.57
2022-08-21T12:18:18.436Z,689.13
2022-08-21T12:19:18.415Z,687.47
2022-08-21T12:20:18.445Z,686.08
2022-08-21T12:21:18.411Z,684.08
2022-08-21T12:22:18.421Z,682.77
2022-08-21T12:23:18.377Z,683.02
2022-08-21T12:24:18.366Z,683.97
2022-08-21T12:25:21.520Z,683.58
2022-08-21T12:26:18.394Z,683.12
2022-08-21T12:27:18.329Z,683.50
2022-08-21T12:28:18.325Z,686.36
2022-08-21T12:29:18.315Z,687.87
2022-08-21T12:30:18.297Z,688.49
2022-08-21T12:31:18.317Z,688.80
2022-08-21T12:32:18.289Z,689.98
2022-08-21T12:33:18.271Z,690.01
2022-08-21T12:34:18.256Z,689.22
2022-08-21T12:35:24.872Z,687.31